Aviation Digital Data Service (ADDS)

Output produced by METARs form (0242 UTC 24 July 2017)
found at http://www.aviationweather.gov/adds/metars/
 
ESSA 240220Z 35004KT 6000 BR FEW003 09/09 Q1016 TEMPO 3000 BCFG
TAF ESSA 232330Z 2400/2424 01005KT CAVOK 
     PROB40 2401/2405 1400 BCFG
       
ESNX 240220Z AUTO 34005KT 9999 OVC068/// 13/08 Q1020
ESCF 240220Z AUTO 06008KT 9999 SCT011/// BKN160/// OVC210/// 14/13 Q1015
ESDF 240220Z AUTO 05007KT 9999 SHRA SCT041/// OVC054/// 15/14 Q1011
ESGG 240220Z 10003KT 9999 SCT021 BKN086 14/12 Q1013
TAF COR ESGG 232356Z 2400/2424 10006KT 9999 SCT040 BKN080 
     PROB40 2400/2409 RA BKN040CB
       
ESGJ 240220Z AUTO 09006KT 9999 FEW011/// SCT086/// 14/12 Q1013
ESGR 240220Z AUTO 08005KT 050V120 9999 SCT014/// 15/11 Q1014
ESIB 240220Z AUTO 06005KT 9999 FEW170/// 14/12 Q1014
ESKM 240220Z AUTO 33003KT 9999 SCT093/// 10/09 Q1018
ESKN 240220Z 03005KT 350V070 CAVOK 11/09 Q1015
TAF ESKN 232330Z 2400/2424 05005KT CAVOK
       
ESMK 240220Z AUTO VRB03KT 2300 DZ NCD 14/14 Q1011
ESMQ 240220Z AUTO 04008KT 9999 -DZ FEW076/// 16/15 Q1011
ESMS 240220Z 28003KT 9999 BKN006 OVC012 14/14 Q1011
TAF AMD ESMS 240135Z 2401/2424 04006KT 9999 BKN020 
     PROB40 2401/2406 0400 FG RADZ BKN001 
     TEMPO 2406/2424 4000 BR RA BKN008
       
ESMT 240220Z AUTO 08003KT 9999 DZ OVC026/// 13/12 Q1012
ESMX 240220Z AUTO 03005KT 9999 FEW007/// BKN055/// 14/13 Q1012
ESND 240220Z AUTO 00000KT 0350 R09/0600N FG NCD 07/07 Q1019
ESNK 240220Z AUTO 31005KT 9999 FEW066/// BKN080/// 08/08 Q1019
ESNL 240220Z AUTO 25003KT 9999 BKN051/// OVC078/// 11/10 Q1019
ESNN 240220Z AUTO 30006KT 9999 NCD 09/07 Q1018
ESNO 240220Z AUTO 33005KT 9999 FEW076/// OVC140/// 12/10 Q1018
ESNQ 240220Z AUTO 18002KT 9999 NCD 08/06 Q1023
ESNS 240220Z AUTO 36005KT 330V030 9999 OVC057/// 16/10 Q1018
ESNU 240220Z 32005KT 9999 -RA OVC061 13/13 Q1017
TAF ESNU 240230Z 2403/2412 35004KT CAVOK
       
ESNV 240220Z AUTO VRB02KT 9999 -RA FEW049/// 08/06 Q1020
ESNX 240220Z AUTO 34005KT 9999 OVC068/// 13/08 Q1020
ESNZ 240220Z AUTO 15004KT 9999 NCD 09/08 Q1019
ESOE 240220Z 03007KT CAVOK 11/10 Q1016
TAF ESOE 240230Z 2403/2407 04008KT CAVOK
       
ESOK 240220Z AUTO 06007KT 9999 NCD 13/09 Q1016
TAF ESOK 240230Z 2403/2412 07008KT CAVOK
       
ESOW 240220Z AUTO 03005KT 9999 NCD 09/08 Q1017
ESPA 240220Z AUTO 02005KT 350V050 9999 NCD 16/11 Q1018
ESPE 240220Z AUTO 35007KT 9999 SCT074/// OVC092/// 14/09 Q1020
ESSA 240220Z 35004KT 6000 BR FEW003 09/09 Q1016 TEMPO 3000 BCFG
TAF ESSA 232330Z 2400/2424 01005KT CAVOK 
     PROB40 2401/2405 1400 BCFG
       
ESSB 240220Z AUTO 36004KT 9999 NCD 10/09 Q1016
ESSD 240220Z AUTO 25003KT 9999 NCD 07/06 Q1017
ESSL 240220Z AUTO 05005KT 9999 FEW013/// BKN150/// OVC180/// 13/12 Q1014
ESSP 240220Z AUTO 04005KT 9999 FEW200/// 13/11 Q1015
ESST 240220Z AUTO VRB02KT 9999 BKN035/// OVC076/// 14/10 Q1017
ESSV 240220Z AUTO 08009KT 9999 SCT190/// 14/13 Q1013
TAF ESSV 240230Z 2403/2412 07007KT CAVOK
       
ESTA 240220Z AUTO 09005KT 9999 BKN015/// OVC023/// 14/12 Q1011
ESTL 240220Z AUTO 00000KT 3600NDV -DZ FEW002/// SCT006/// BKN007/// 13/13 Q1011
ESUD 240220Z AUTO 00000KT 9999 -RA SCT051/// BKN066/// OVC090/// 10/09 Q1020
ESUP 240220Z AUTO VRB02KT 9999 NCD 11/08 Q1021
ESUT 240220Z AUTO 09002KT 9999 FEW110/// OVC130/// 07/06 Q1022
ESSD 240220Z AUTO 25003KT 9999 NCD 07/06 Q1017
ESSB 240220Z AUTO 36004KT 9999 NCD 10/09 Q1016
ESMT 240220Z AUTO 08003KT 9999 DZ OVC026/// 13/12 Q1012
ESUT 240220Z AUTO 09002KT 9999 FEW110/// OVC130/// 07/06 Q1022
ESGJ 240220Z AUTO 09006KT 9999 FEW011/// SCT086/// 14/12 Q1013
ESPA 240220Z AUTO 02005KT 350V050 9999 NCD 16/11 Q1018
ESMQ 240220Z AUTO 04008KT 9999 -DZ FEW076/// 16/15 Q1011
ESOK 240220Z AUTO 06007KT 9999 NCD 13/09 Q1016
TAF ESOK 240230Z 2403/2412 07008KT CAVOK
       
ESNQ 240220Z AUTO 18002KT 9999 NCD 08/06 Q1023
ESNK 240220Z AUTO 31005KT 9999 FEW066/// BKN080/// 08/08 Q1019
ESMK 240220Z AUTO VRB03KT 2300 DZ NCD 14/14 Q1011
ESMX 240220Z AUTO 03005KT 9999 FEW007/// BKN055/// 14/13 Q1012
ESSP 240220Z AUTO 04005KT 9999 FEW200/// 13/11 Q1015
ESGG 240220Z 10003KT 9999 SCT021 BKN086 14/12 Q1013
TAF COR ESGG 232356Z 2400/2424 10006KT 9999 SCT040 BKN080 
     PROB40 2400/2409 RA BKN040CB
       
ESTL 240220Z AUTO 00000KT 3600NDV -DZ FEW002/// SCT006/// BKN007/// 13/13 Q1011
ESNL 240220Z AUTO 25003KT 9999 BKN051/// OVC078/// 11/10 Q1019
ESCF 240220Z AUTO 06008KT 9999 SCT011/// BKN160/// OVC210/// 14/13 Q1015
ESKM 240220Z AUTO 33003KT 9999 SCT093/// 10/09 Q1018
ESOE 240220Z 03007KT CAVOK 11/10 Q1016
TAF ESOE 240230Z 2403/2407 04008KT CAVOK
       
ESNO 240220Z AUTO 33005KT 9999 FEW076/// OVC140/// 12/10 Q1018
ESUP 240220Z AUTO VRB02KT 9999 NCD 11/08 Q1021
ESDF 240220Z AUTO 05007KT 9999 SHRA SCT041/// OVC054/// 15/14 Q1011
ESSL 240220Z AUTO 05005KT 9999 FEW013/// BKN150/// OVC180/// 13/12 Q1014
ESIB 240220Z AUTO 06005KT 9999 FEW170/// 14/12 Q1014
ESKN 240220Z 03005KT 350V070 CAVOK 11/09 Q1015
TAF ESKN 232330Z 2400/2424 05005KT CAVOK
       
ESNS 240220Z AUTO 36005KT 330V030 9999 OVC057/// 16/10 Q1018
ESGR 240220Z AUTO 08005KT 050V120 9999 SCT014/// 15/11 Q1014
ESUD 240220Z AUTO 00000KT 9999 -RA SCT051/// BKN066/// OVC090/// 10/09 Q1020
ESMS 240220Z 28003KT 9999 BKN006 OVC012 14/14 Q1011
TAF AMD ESMS 240135Z 2401/2424 04006KT 9999 BKN020 
     PROB40 2401/2406 0400 FG RADZ BKN001 
     TEMPO 2406/2424 4000 BR RA BKN008
       
ESNN 240220Z AUTO 30006KT 9999 NCD 09/07 Q1018
ESND 240220Z AUTO 00000KT 0350 R09/0600N FG NCD 07/07 Q1019
ESST 240220Z AUTO VRB02KT 9999 BKN035/// OVC076/// 14/10 Q1017
ESNU 240220Z 32005KT 9999 -RA OVC061 13/13 Q1017
TAF ESNU 240230Z 2403/2412 35004KT CAVOK
       
ESOW 240220Z AUTO 03005KT 9999 NCD 09/08 Q1017
ESPE 240220Z AUTO 35007KT 9999 SCT074/// OVC092/// 14/09 Q1020
ESNV 240220Z AUTO VRB02KT 9999 -RA FEW049/// 08/06 Q1020
ESSV 240220Z AUTO 08009KT 9999 SCT190/// 14/13 Q1013
TAF ESSV 240230Z 2403/2412 07007KT CAVOK